sensor_id;sensor_type;location;lat;lon;timestamp;noise_LAeq;noise_LA_min;noise_LA_max;noise_LA01;noise_LA95
18377;Laerm;9315;52.624;13.544;2023-05-07T00:01:06;59.13;32.94;79.09;;
18377;Laerm;9315;52.624;13.544;2023-05-07T00:03:33;35.73;31.97;46.39;;
18377;Laerm;9315;52.624;13.544;2023-05-07T00:06:03;57.89;31.62;76.24;;
18377;Laerm;9315;52.624;13.544;2023-05-07T00:08:30;57.69;30.68;73.25;;
18377;Laerm;9315;52.624;13.544;2023-05-07T00:10:57;36.64;31.58;49.06;;
18377;Laerm;9315;52.624;13.544;2023-05-07T00:13:24;54.06;32.07;71.92;;
18377;Laerm;9315;52.624;13.544;2023-05-07T00:15:52;41.17;32.98;59.51;;
18377;Laerm;9315;52.624;13.544;2023-05-07T00:18:19;60.59;32.06;76.10;;
18377;Laerm;9315;52.624;13.544;2023-05-07T00:20:49;60.02;31.83;75.44;;
18377;Laerm;9315;52.624;13.544;2023-05-07T00:23:16;37.07;32.44;45.74;;
18377;Laerm;9315;52.624;13.544;2023-05-07T00:25:43;35.50;32.08;41.47;;
18377;Laerm;9315;52.624;13.544;2023-05-07T00:28:12;35.88;31.40;43.01;;
18377;Laerm;9315;52.624;13.544;2023-05-07T00:30:40;34.74;31.12;40.06;;
18377;Laerm;9315;52.624;13.544;2023-05-07T00:33:07;58.54;32.05;78.19;;
18377;Laerm;9315;52.624;13.544;2023-05-07T00:35:34;35.33;31.41;41.21;;
18377;Laerm;9315;52.624;13.544;2023-05-07T00:38:01;60.20;32.62;78.14;;
18377;Laerm;9315;52.624;13.544;2023-05-07T00:40:28;35.10;31.42;43.38;;
18377;Laerm;9315;52.624;13.544;2023-05-07T00:42:55;35.32;30.86;52.15;;
18377;Laerm;9315;52.624;13.544;2023-05-07T00:45:27;53.49;31.73;72.91;;
18377;Laerm;9315;52.624;13.544;2023-05-07T00:48:00;56.12;32.18;71.12;;
18377;Laerm;9315;52.624;13.544;2023-05-07T00:50:29;45.15;31.84;59.47;;
18377;Laerm;9315;52.624;13.544;2023-05-07T00:52:56;56.78;33.08;73.65;;
18377;Laerm;9315;52.624;13.544;2023-05-07T00:55:24;58.24;32.11;73.73;;
18377;Laerm;9315;52.624;13.544;2023-05-07T00:57:51;35.47;31.83;48.91;;
18377;Laerm;9315;52.624;13.544;2023-05-07T01:00:19;60.54;32.29;81.05;;
18377;Laerm;9315;52.624;13.544;2023-05-07T01:02:46;63.00;31.85;81.09;;
18377;Laerm;9315;52.624;13.544;2023-05-07T01:05:17;56.28;31.65;71.73;;
18377;Laerm;9315;52.624;13.544;2023-05-07T01:07:46;57.62;31.30;75.08;;
18377;Laerm;9315;52.624;13.544;2023-05-07T01:10:14;54.16;30.14;71.04;;
18377;Laerm;9315;52.624;13.544;2023-05-07T01:12:42;34.56;30.65;45.44;;
18377;Laerm;9315;52.624;13.544;2023-05-07T01:15:11;55.22;31.31;70.89;;
18377;Laerm;9315;52.624;13.544;2023-05-07T01:17:41;57.32;31.86;76.12;;
18377;Laerm;9315;52.624;13.544;2023-05-07T01:20:10;35.14;31.41;42.44;;
18377;Laerm;9315;52.624;13.544;2023-05-07T01:22:39;34.87;31.31;41.29;;
18377;Laerm;9315;52.624;13.544;2023-05-07T01:25:08;37.42;31.85;52.08;;
18377;Laerm;9315;52.624;13.544;2023-05-07T01:27:35;54.60;32.20;73.72;;
18377;Laerm;9315;52.624;13.544;2023-05-07T01:30:05;57.55;32.24;77.21;;
18377;Laerm;9315;52.624;13.544;2023-05-07T01:33:06;36.34;31.32;59.58;;
18377;Laerm;9315;52.624;13.544;2023-05-07T01:35:43;56.62;31.74;74.01;;
18377;Laerm;9315;52.624;13.544;2023-05-07T01:38:12;49.78;32.39;68.91;;
18377;Laerm;9315;52.624;13.544;2023-05-07T01:40:40;48.42;32.28;65.28;;
18377;Laerm;9315;52.624;13.544;2023-05-07T01:43:07;45.63;32.52;65.28;;
18377;Laerm;9315;52.624;13.544;2023-05-07T01:45:36;49.93;32.44;66.80;;
18377;Laerm;9315;52.624;13.544;2023-05-07T01:48:04;49.57;32.13;66.97;;
18377;Laerm;9315;52.624;13.544;2023-05-07T01:50:32;49.01;32.02;64.62;;
18377;Laerm;9315;52.624;13.544;2023-05-07T01:52:59;51.27;30.71;66.14;;
18377;Laerm;9315;52.624;13.544;2023-05-07T01:55:28;57.28;31.99;76.16;;
18377;Laerm;9315;52.624;13.544;2023-05-07T01:57:55;53.96;31.90;70.10;;
18377;Laerm;9315;52.624;13.544;2023-05-07T02:00:22;54.50;31.08;68.89;;
18377;Laerm;9315;52.624;13.544;2023-05-07T02:02:50;59.92;32.18;76.09;;
18377;Laerm;9315;52.624;13.544;2023-05-07T02:05:17;54.43;30.62;70.93;;
18377;Laerm;9315;52.624;13.544;2023-05-07T02:07:44;54.07;33.02;70.26;;
18377;Laerm;9315;52.624;13.544;2023-05-07T02:10:11;58.08;33.23;73.18;;
18377;Laerm;9315;52.624;13.544;2023-05-07T02:12:38;55.45;33.83;72.01;;
18377;Laerm;9315;52.624;13.544;2023-05-07T02:15:06;58.21;33.43;73.74;;
18377;Laerm;9315;52.624;13.544;2023-05-07T02:17:34;58.42;33.48;73.17;;
18377;Laerm;9315;52.624;13.544;2023-05-07T02:20:02;61.62;34.97;74.31;;
18377;Laerm;9315;52.624;13.544;2023-05-07T02:22:30;59.14;35.05;77.19;;
18377;Laerm;9315;52.624;13.544;2023-05-07T02:24:57;57.88;34.56;74.15;;
18377;Laerm;9315;52.624;13.544;2023-05-07T02:27:24;59.39;34.60;73.04;;
18377;Laerm;9315;52.624;13.544;2023-05-07T02:29:51;57.28;35.55;73.74;;
18377;Laerm;9315;52.624;13.544;2023-05-07T02:32:18;57.95;35.98;71.62;;
18377;Laerm;9315;52.624;13.544;2023-05-07T02:34:46;61.69;35.52;76.59;;
18377;Laerm;9315;52.624;13.544;2023-05-07T02:37:13;55.99;34.51;74.26;;
18377;Laerm;9315;52.624;13.544;2023-05-07T02:39:40;55.59;36.61;74.46;;
18377;Laerm;9315;52.624;13.544;2023-05-07T02:42:07;54.88;35.54;72.16;;
18377;Laerm;9315;52.624;13.544;2023-05-07T02:44:34;62.66;36.20;77.85;;
18377;Laerm;9315;52.624;13.544;2023-05-07T02:47:02;49.11;34.90;63.84;;
18377;Laerm;9315;52.624;13.544;2023-05-07T02:49:29;55.25;35.79;71.41;;
18377;Laerm;9315;52.624;13.544;2023-05-07T02:51:56;58.94;35.09;75.48;;
18377;Laerm;9315;52.624;13.544;2023-05-07T02:54:23;47.94;34.80;65.75;;
18377;Laerm;9315;52.624;13.544;2023-05-07T02:56:50;60.12;36.59;74.47;;
18377;Laerm;9315;52.624;13.544;2023-05-07T02:59:19;57.85;35.52;75.00;;
18377;Laerm;9315;52.624;13.544;2023-05-07T03:01:46;61.47;35.75;74.79;;
18377;Laerm;9315;52.624;13.544;2023-05-07T03:04:13;55.54;35.52;71.63;;
18377;Laerm;9315;52.624;13.544;2023-05-07T03:06:40;60.88;36.48;73.66;;
18377;Laerm;9315;52.624;13.544;2023-05-07T03:09:10;54.65;33.57;73.23;;
18377;Laerm;9315;52.624;13.544;2023-05-07T03:11:38;57.81;33.42;72.97;;
18377;Laerm;9315;52.624;13.544;2023-05-07T03:14:05;64.51;34.99;82.54;;
18377;Laerm;9315;52.624;13.544;2023-05-07T03:16:32;59.99;37.34;75.32;;
18377;Laerm;9315;52.624;13.544;2023-05-07T03:19:02;61.63;38.06;74.70;;
18377;Laerm;9315;52.624;13.544;2023-05-07T03:21:29;60.16;36.73;74.10;;
18377;Laerm;9315;52.624;13.544;2023-05-07T03:23:57;59.32;36.70;73.83;;
18377;Laerm;9315;52.624;13.544;2023-05-07T03:26:24;61.01;36.67;77.96;;
18377;Laerm;9315;52.624;13.544;2023-05-07T03:28:52;62.52;36.93;76.69;;
18377;Laerm;9315;52.624;13.544;2023-05-07T03:31:19;63.06;36.54;78.55;;
18377;Laerm;9315;52.624;13.544;2023-05-07T03:33:57;57.87;36.62;73.51;;
18377;Laerm;9315;52.624;13.544;2023-05-07T03:36:24;65.88;36.49;81.48;;
18377;Laerm;9315;52.624;13.544;2023-05-07T03:38:53;62.64;36.02;78.44;;
18377;Laerm;9315;52.624;13.544;2023-05-07T03:41:21;64.93;38.93;78.62;;
18377;Laerm;9315;52.624;13.544;2023-05-07T03:43:48;56.83;37.25;75.61;;
18377;Laerm;9315;52.624;13.544;2023-05-07T03:46:15;49.59;36.16;68.94;;
18377;Laerm;9315;52.624;13.544;2023-05-07T03:48:42;62.86;38.30;78.06;;
18377;Laerm;9315;52.624;13.544;2023-05-07T03:51:09;53.68;35.30;69.15;;
18377;Laerm;9315;52.624;13.544;2023-05-07T03:53:37;59.76;35.29;77.54;;
18377;Laerm;9315;52.624;13.544;2023-05-07T03:56:04;63.97;37.16;84.76;;
18377;Laerm;9315;52.624;13.544;2023-05-07T03:58:32;61.45;36.11;76.61;;
18377;Laerm;9315;52.624;13.544;2023-05-07T04:00:59;61.06;37.27;74.88;;
18377;Laerm;9315;52.624;13.544;2023-05-07T04:03:27;61.99;37.88;77.84;;
18377;Laerm;9315;52.624;13.544;2023-05-07T04:05:54;58.79;36.71;74.53;;
18377;Laerm;9315;52.624;13.544;2023-05-07T04:08:21;54.53;36.84;69.78;;
18377;Laerm;9315;52.624;13.544;2023-05-07T04:10:57;59.80;36.87;74.16;;
18377;Laerm;9315;52.624;13.544;2023-05-07T04:13:27;63.39;37.87;83.08;;
18377;Laerm;9315;52.624;13.544;2023-05-07T04:15:55;60.10;36.61;74.85;;
18377;Laerm;9315;52.624;13.544;2023-05-07T04:18:23;62.86;36.26;82.94;;
18377;Laerm;9315;52.624;13.544;2023-05-07T04:20:50;61.87;37.62;74.38;;
18377;Laerm;9315;52.624;13.544;2023-05-07T04:23:17;61.66;36.86;75.78;;
18377;Laerm;9315;52.624;13.544;2023-05-07T04:25:44;64.85;37.25;80.39;;
18377;Laerm;9315;52.624;13.544;2023-05-07T04:28:12;59.94;37.51;74.48;;
18377;Laerm;9315;52.624;13.544;2023-05-07T04:30:40;62.66;37.00;78.08;;
18377;Laerm;9315;52.624;13.544;2023-05-07T04:33:08;61.92;37.22;77.24;;
18377;Laerm;9315;52.624;13.544;2023-05-07T04:35:36;64.93;37.97;85.27;;
18377;Laerm;9315;52.624;13.544;2023-05-07T04:38:03;65.29;38.68;80.52;;
18377;Laerm;9315;52.624;13.544;2023-05-07T04:40:30;58.27;36.66;74.42;;
18377;Laerm;9315;52.624;13.544;2023-05-07T04:42:57;62.51;37.68;76.17;;
18377;Laerm;9315;52.624;13.544;2023-05-07T04:45:24;43.50;36.09;60.33;;
18377;Laerm;9315;52.624;13.544;2023-05-07T04:47:51;61.72;37.84;76.55;;
18377;Laerm;9315;52.624;13.544;2023-05-07T04:50:18;61.86;36.52;74.54;;
18377;Laerm;9315;52.624;13.544;2023-05-07T04:52:46;64.24;37.51;80.02;;
18377;Laerm;9315;52.624;13.544;2023-05-07T04:55:13;58.91;35.91;74.07;;
18377;Laerm;9315;52.624;13.544;2023-05-07T04:57:40;58.02;34.81;74.19;;
18377;Laerm;9315;52.624;13.544;2023-05-07T05:00:08;59.03;35.83;76.39;;
18377;Laerm;9315;52.624;13.544;2023-05-07T05:02:36;56.29;36.53;74.55;;
18377;Laerm;9315;52.624;13.544;2023-05-07T05:05:04;54.60;37.17;71.40;;
18377;Laerm;9315;52.624;13.544;2023-05-07T05:07:31;53.24;36.13;71.06;;
18377;Laerm;9315;52.624;13.544;2023-05-07T05:09:59;64.04;36.61;77.88;;
18377;Laerm;9315;52.624;13.544;2023-05-07T05:12:26;63.55;36.04;76.55;;
18377;Laerm;9315;52.624;13.544;2023-05-07T05:14:53;56.43;35.79;76.88;;
18377;Laerm;9315;52.624;13.544;2023-05-07T05:17:21;55.86;35.98;75.54;;
18377;Laerm;9315;52.624;13.544;2023-05-07T05:19:48;57.52;34.06;72.80;;
18377;Laerm;9315;52.624;13.544;2023-05-07T05:22:15;56.87;33.98;73.55;;
18377;Laerm;9315;52.624;13.544;2023-05-07T05:24:43;66.01;37.59;80.90;;
18377;Laerm;9315;52.624;13.544;2023-05-07T05:27:10;61.35;36.22;75.39;;
18377;Laerm;9315;52.624;13.544;2023-05-07T05:29:37;65.40;34.01;78.91;;
18377;Laerm;9315;52.624;13.544;2023-05-07T05:32:04;64.47;35.35;81.58;;
18377;Laerm;9315;52.624;13.544;2023-05-07T05:34:32;55.29;34.63;75.20;;
18377;Laerm;9315;52.624;13.544;2023-05-07T05:37:00;63.20;34.23;78.45;;
18377;Laerm;9315;52.624;13.544;2023-05-07T05:39:27;62.32;35.89;75.80;;
18377;Laerm;9315;52.624;13.544;2023-05-07T05:41:54;63.73;37.44;78.04;;
18377;Laerm;9315;52.624;13.544;2023-05-07T05:44:21;62.06;35.62;78.84;;
18377;Laerm;9315;52.624;13.544;2023-05-07T05:46:48;61.65;36.38;74.46;;
18377;Laerm;9315;52.624;13.544;2023-05-07T05:49:16;64.30;36.39;78.08;;
18377;Laerm;9315;52.624;13.544;2023-05-07T05:51:44;63.66;37.22;80.00;;
18377;Laerm;9315;52.624;13.544;2023-05-07T05:54:11;60.80;37.27;75.05;;
18377;Laerm;9315;52.624;13.544;2023-05-07T05:56:38;62.67;36.73;76.45;;
18377;Laerm;9315;52.624;13.544;2023-05-07T05:59:05;66.82;38.15;81.11;;
18377;Laerm;9315;52.624;13.544;2023-05-07T06:01:32;66.49;38.77;79.81;;
18377;Laerm;9315;52.624;13.544;2023-05-07T06:04:00;61.02;34.77;75.03;;
18377;Laerm;9315;52.624;13.544;2023-05-07T06:06:27;61.50;37.76;78.32;;
18377;Laerm;9315;52.624;13.544;2023-05-07T06:08:54;62.26;37.61;75.84;;
18377;Laerm;9315;52.624;13.544;2023-05-07T06:11:22;65.82;38.75;80.90;;
18377;Laerm;9315;52.624;13.544;2023-05-07T06:13:49;61.64;36.61;76.14;;
18377;Laerm;9315;52.624;13.544;2023-05-07T06:16:16;61.05;36.95;75.93;;
18377;Laerm;9315;52.624;13.544;2023-05-07T06:18:43;63.14;37.24;75.13;;
18377;Laerm;9315;52.624;13.544;2023-05-07T06:21:13;61.66;38.62;74.53;;
18377;Laerm;9315;52.624;13.544;2023-05-07T06:23:41;64.97;38.80;78.12;;
18377;Laerm;9315;52.624;13.544;2023-05-07T06:26:08;66.31;39.87;79.36;;
18377;Laerm;9315;52.624;13.544;2023-05-07T06:28:35;62.91;38.43;76.12;;
18377;Laerm;9315;52.624;13.544;2023-05-07T06:31:14;59.08;36.81;72.96;;
18377;Laerm;9315;52.624;13.544;2023-05-07T06:33:44;66.00;39.94;78.59;;
18377;Laerm;9315;52.624;13.544;2023-05-07T06:36:12;60.57;37.30;76.41;;
18377;Laerm;9315;52.624;13.544;2023-05-07T06:38:39;60.83;36.58;78.02;;
18377;Laerm;9315;52.624;13.544;2023-05-07T06:41:07;64.00;38.60;75.04;;
18377;Laerm;9315;52.624;13.544;2023-05-07T06:43:34;64.31;38.36;76.52;;
18377;Laerm;9315;52.624;13.544;2023-05-07T06:46:02;63.52;37.41;76.34;;
18377;Laerm;9315;52.624;13.544;2023-05-07T06:48:29;65.37;37.74;78.06;;
18377;Laerm;9315;52.624;13.544;2023-05-07T06:50:56;63.83;37.19;77.78;;
18377;Laerm;9315;52.624;13.544;2023-05-07T06:53:24;64.06;38.42;79.36;;
18377;Laerm;9315;52.624;13.544;2023-05-07T06:55:52;62.69;35.98;77.12;;
18377;Laerm;9315;52.624;13.544;2023-05-07T06:58:19;63.71;37.01;77.78;;
18377;Laerm;9315;52.624;13.544;2023-05-07T07:00:47;69.31;38.12;88.10;;
18377;Laerm;9315;52.624;13.544;2023-05-07T07:03:14;62.74;36.17;82.14;;
18377;Laerm;9315;52.624;13.544;2023-05-07T07:05:41;65.31;38.29;78.03;;
18377;Laerm;9315;52.624;13.544;2023-05-07T07:08:10;66.43;36.98;82.02;;
18377;Laerm;9315;52.624;13.544;2023-05-07T07:10:37;65.97;40.38;81.23;;
18377;Laerm;9315;52.624;13.544;2023-05-07T07:13:04;65.11;39.21;77.71;;
18377;Laerm;9315;52.624;13.544;2023-05-07T07:15:31;64.50;39.12;77.89;;
18377;Laerm;9315;52.624;13.544;2023-05-07T07:17:58;65.52;38.92;77.13;;
18377;Laerm;9315;52.624;13.544;2023-05-07T07:20:25;66.37;39.66;77.07;;
18377;Laerm;9315;52.624;13.544;2023-05-07T07:22:52;66.79;39.83;77.65;;
18377;Laerm;9315;52.624;13.544;2023-05-07T07:25:20;66.44;39.70;75.95;;
18377;Laerm;9315;52.624;13.544;2023-05-07T07:27:47;64.84;40.77;76.65;;
18377;Laerm;9315;52.624;13.544;2023-05-07T07:30:14;66.65;43.11;77.61;;
18377;Laerm;9315;52.624;13.544;2023-05-07T07:32:41;65.02;42.82;76.90;;
18377;Laerm;9315;52.624;13.544;2023-05-07T07:35:09;67.75;43.77;80.72;;
18377;Laerm;9315;52.624;13.544;2023-05-07T07:37:37;67.19;39.29;77.49;;
18377;Laerm;9315;52.624;13.544;2023-05-07T07:40:05;67.74;38.15;76.46;;
18377;Laerm;9315;52.624;13.544;2023-05-07T07:42:32;65.97;41.90;77.03;;
18377;Laerm;9315;52.624;13.544;2023-05-07T07:44:59;65.72;41.84;76.61;;
18377;Laerm;9315;52.624;13.544;2023-05-07T07:47:28;67.54;45.23;78.63;;
18377;Laerm;9315;52.624;13.544;2023-05-07T07:49:56;67.63;43.94;77.12;;
18377;Laerm;9315;52.624;13.544;2023-05-07T07:52:23;66.52;43.73;77.93;;
18377;Laerm;9315;52.624;13.544;2023-05-07T07:54:50;67.14;43.23;79.37;;
18377;Laerm;9315;52.624;13.544;2023-05-07T07:57:17;67.18;46.14;76.44;;
18377;Laerm;9315;52.624;13.544;2023-05-07T07:59:45;66.63;43.79;77.29;;
18377;Laerm;9315;52.624;13.544;2023-05-07T08:02:14;66.05;43.09;77.10;;
18377;Laerm;9315;52.624;13.544;2023-05-07T08:04:42;67.14;44.25;79.05;;
18377;Laerm;9315;52.624;13.544;2023-05-07T08:07:10;67.24;42.14;77.88;;
18377;Laerm;9315;52.624;13.544;2023-05-07T08:09:41;66.17;41.62;76.71;;
18377;Laerm;9315;52.624;13.544;2023-05-07T08:12:09;67.14;48.40;77.71;;
18377;Laerm;9315;52.624;13.544;2023-05-07T08:14:36;67.43;43.63;78.27;;
18377;Laerm;9315;52.624;13.544;2023-05-07T08:17:03;68.71;47.00;76.95;;
18377;Laerm;9315;52.624;13.544;2023-05-07T08:19:31;67.00;46.66;75.18;;
18377;Laerm;9315;52.624;13.544;2023-05-07T08:21:58;68.33;45.83;77.31;;
18377;Laerm;9315;52.624;13.544;2023-05-07T08:24:25;68.04;45.43;80.04;;
18377;Laerm;9315;52.624;13.544;2023-05-07T08:26:52;68.87;43.49;77.99;;
18377;Laerm;9315;52.624;13.544;2023-05-07T08:29:20;67.55;43.92;76.26;;
18377;Laerm;9315;52.624;13.544;2023-05-07T08:31:47;69.11;47.40;81.04;;
18377;Laerm;9315;52.624;13.544;2023-05-07T08:34:14;68.23;51.27;79.90;;
18377;Laerm;9315;52.624;13.544;2023-05-07T08:36:41;69.05;45.47;81.46;;
18377;Laerm;9315;52.624;13.544;2023-05-07T08:39:08;68.04;47.58;77.49;;
18377;Laerm;9315;52.624;13.544;2023-05-07T08:41:36;66.66;44.91;76.77;;
18377;Laerm;9315;52.624;13.544;2023-05-07T08:44:06;69.26;49.97;80.87;;
18377;Laerm;9315;52.624;13.544;2023-05-07T08:46:39;69.67;45.69;83.01;;
18377;Laerm;9315;52.624;13.544;2023-05-07T08:49:09;69.44;46.38;86.23;;
18377;Laerm;9315;52.624;13.544;2023-05-07T08:51:36;67.91;45.95;77.66;;
18377;Laerm;9315;52.624;13.544;2023-05-07T08:54:03;69.56;52.52;77.66;;
18377;Laerm;9315;52.624;13.544;2023-05-07T08:56:32;68.85;52.75;78.24;;
18377;Laerm;9315;52.624;13.544;2023-05-07T08:58:59;69.28;56.43;78.49;;
18377;Laerm;9315;52.624;13.544;2023-05-07T09:01:27;68.96;52.37;76.79;;
18377;Laerm;9315;52.624;13.544;2023-05-07T09:03:54;68.44;43.56;77.50;;
18377;Laerm;9315;52.624;13.544;2023-05-07T09:06:21;66.57;43.14;78.78;;
18377;Laerm;9315;52.624;13.544;2023-05-07T09:08:52;68.93;44.36;83.79;;
18377;Laerm;9315;52.624;13.544;2023-05-07T09:11:22;67.22;45.71;76.12;;
18377;Laerm;9315;52.624;13.544;2023-05-07T09:13:55;69.61;46.24;86.21;;
18377;Laerm;9315;52.624;13.544;2023-05-07T09:16:26;67.08;45.20;75.90;;
18377;Laerm;9315;52.624;13.544;2023-05-07T09:18:58;67.20;43.71;84.28;;
18377;Laerm;9315;52.624;13.544;2023-05-07T09:21:25;69.75;43.71;83.91;;
18377;Laerm;9315;52.624;13.544;2023-05-07T09:23:55;67.52;44.58;75.66;;
18377;Laerm;9315;52.624;13.544;2023-05-07T09:26:26;67.10;45.31;75.15;;
18377;Laerm;9315;52.624;13.544;2023-05-07T09:28:55;66.80;42.57;79.60;;
18377;Laerm;9315;52.624;13.544;2023-05-07T09:31:22;68.77;46.65;76.67;;
18377;Laerm;9315;52.624;13.544;2023-05-07T09:33:50;68.56;44.34;83.08;;
18377;Laerm;9315;52.624;13.544;2023-05-07T09:36:19;68.59;45.14;77.71;;
18377;Laerm;9315;52.624;13.544;2023-05-07T09:38:48;67.59;45.25;84.97;;
18377;Laerm;9315;52.624;13.544;2023-05-07T09:41:19;67.66;45.94;76.94;;
18377;Laerm;9315;52.624;13.544;2023-05-07T09:43:54;68.20;47.36;77.02;;
18377;Laerm;9315;52.624;13.544;2023-05-07T09:46:30;67.61;44.17;79.90;;
18377;Laerm;9315;52.624;13.544;2023-05-07T09:48:58;68.38;43.04;77.85;;
18377;Laerm;9315;52.624;13.544;2023-05-07T09:51:51;65.70;42.91;78.27;;
18377;Laerm;9315;52.624;13.544;2023-05-07T09:54:19;67.57;44.00;77.52;;
18377;Laerm;9315;52.624;13.544;2023-05-07T09:56:51;68.32;44.55;77.51;;
18377;Laerm;9315;52.624;13.544;2023-05-07T09:59:23;67.32;44.61;77.49;;
18377;Laerm;9315;52.624;13.544;2023-05-07T10:01:52;67.02;43.13;78.44;;
18377;Laerm;9315;52.624;13.544;2023-05-07T10:04:25;67.45;43.87;77.65;;
18377;Laerm;9315;52.624;13.544;2023-05-07T10:06:54;69.01;45.67;79.79;;
18377;Laerm;9315;52.624;13.544;2023-05-07T10:09:22;66.19;42.85;75.95;;
18377;Laerm;9315;52.624;13.544;2023-05-07T10:11:50;66.75;44.02;78.25;;
18377;Laerm;9315;52.624;13.544;2023-05-07T10:14:19;65.71;44.56;76.04;;
18377;Laerm;9315;52.624;13.544;2023-05-07T10:16:47;69.48;50.24;82.31;;
18377;Laerm;9315;52.624;13.544;2023-05-07T10:19:15;66.92;42.02;75.80;;
18377;Laerm;9315;52.624;13.544;2023-05-07T10:21:56;65.70;43.54;77.79;;
18377;Laerm;9315;52.624;13.544;2023-05-07T10:24:36;68.21;45.29;83.64;;
18377;Laerm;9315;52.624;13.544;2023-05-07T10:27:12;68.42;43.78;76.53;;
18377;Laerm;9315;52.624;13.544;2023-05-07T10:32:49;69.05;43.96;83.45;;
18377;Laerm;9315;52.624;13.544;2023-05-07T10:35:26;67.47;41.32;75.39;;
18377;Laerm;9315;52.624;13.544;2023-05-07T10:37:56;66.31;44.73;75.86;;
18377;Laerm;9315;52.624;13.544;2023-05-07T10:40:23;69.30;49.15;82.62;;
18377;Laerm;9315;52.624;13.544;2023-05-07T10:43:01;68.93;47.17;80.81;;
18377;Laerm;9315;52.624;13.544;2023-05-07T10:45:29;65.95;43.62;76.18;;
18377;Laerm;9315;52.624;13.544;2023-05-07T10:48:14;68.60;43.87;77.37;;
18377;Laerm;9315;52.624;13.544;2023-05-07T10:50:46;68.12;44.85;77.07;;
18377;Laerm;9315;52.624;13.544;2023-05-07T10:55:52;68.70;45.69;78.66;;
18377;Laerm;9315;52.624;13.544;2023-05-07T10:58:38;67.95;44.58;80.33;;
18377;Laerm;9315;52.624;13.544;2023-05-07T11:01:05;67.51;45.01;77.44;;
18377;Laerm;9315;52.624;13.544;2023-05-07T11:03:35;66.33;44.21;75.97;;
18377;Laerm;9315;52.624;13.544;2023-05-07T11:06:20;67.27;43.16;75.74;;
18377;Laerm;9315;52.624;13.544;2023-05-07T11:08:58;66.90;41.13;77.19;;
18377;Laerm;9315;52.624;13.544;2023-05-07T11:11:50;68.61;44.20;77.41;;
18377;Laerm;9315;52.624;13.544;2023-05-07T11:17:09;67.32;46.52;76.36;;
18377;Laerm;9315;52.624;13.544;2023-05-07T11:19:52;68.27;44.57;81.00;;
18377;Laerm;9315;52.624;13.544;2023-05-07T11:22:37;67.30;45.33;76.43;;
18377;Laerm;9315;52.624;13.544;2023-05-07T11:25:07;65.94;45.01;75.65;;
18377;Laerm;9315;52.624;13.544;2023-05-07T11:27:35;67.63;42.79;79.64;;
18377;Laerm;9315;52.624;13.544;2023-05-07T11:30:02;67.23;43.28;76.37;;
18377;Laerm;9315;52.624;13.544;2023-05-07T11:32:32;68.16;42.90;76.43;;
18377;Laerm;9315;52.624;13.544;2023-05-07T11:35:00;69.87;47.44;78.93;;
18377;Laerm;9315;52.624;13.544;2023-05-07T11:37:28;69.47;45.85;85.18;;
18377;Laerm;9315;52.624;13.544;2023-05-07T11:40:08;68.21;45.42;76.43;;
18377;Laerm;9315;52.624;13.544;2023-05-07T11:42:40;68.47;44.01;80.33;;
18377;Laerm;9315;52.624;13.544;2023-05-07T11:45:09;68.12;43.77;77.97;;
18377;Laerm;9315;52.624;13.544;2023-05-07T11:47:37;67.57;42.20;79.42;;
18377;Laerm;9315;52.624;13.544;2023-05-07T11:50:07;68.49;46.11;78.68;;
18377;Laerm;9315;52.624;13.544;2023-05-07T11:52:35;67.65;46.19;80.96;;
18377;Laerm;9315;52.624;13.544;2023-05-07T11:55:03;69.41;46.43;86.79;;
18377;Laerm;9315;52.624;13.544;2023-05-07T11:57:33;69.18;46.88;78.22;;
18377;Laerm;9315;52.624;13.544;2023-05-07T12:00:02;68.23;43.87;77.56;;
18377;Laerm;9315;52.624;13.544;2023-05-07T12:02:31;66.03;42.74;77.88;;
18377;Laerm;9315;52.624;13.544;2023-05-07T12:05:01;68.43;41.95;81.65;;
18377;Laerm;9315;52.624;13.544;2023-05-07T12:07:29;67.70;41.66;77.62;;
18377;Laerm;9315;52.624;13.544;2023-05-07T12:09:56;69.15;46.23;79.63;;
18377;Laerm;9315;52.624;13.544;2023-05-07T12:12:23;66.55;40.89;76.12;;
18377;Laerm;9315;52.624;13.544;2023-05-07T12:14:51;66.87;42.55;76.01;;
18377;Laerm;9315;52.624;13.544;2023-05-07T12:17:19;67.50;43.40;79.74;;
18377;Laerm;9315;52.624;13.544;2023-05-07T12:19:58;70.71;45.02;86.99;;
18377;Laerm;9315;52.624;13.544;2023-05-07T12:22:26;67.86;43.76;76.57;;
18377;Laerm;9315;52.624;13.544;2023-05-07T12:25:02;66.35;43.67;77.94;;
18377;Laerm;9315;52.624;13.544;2023-05-07T12:27:30;68.21;43.30;80.58;;
18377;Laerm;9315;52.624;13.544;2023-05-07T12:29:58;66.54;42.79;77.02;;
18377;Laerm;9315;52.624;13.544;2023-05-07T12:32:26;66.49;42.97;78.85;;
18377;Laerm;9315;52.624;13.544;2023-05-07T12:34:53;68.42;47.85;78.04;;
18377;Laerm;9315;52.624;13.544;2023-05-07T12:37:27;67.94;46.91;82.19;;
18377;Laerm;9315;52.624;13.544;2023-05-07T12:40:14;65.85;43.83;77.71;;
18377;Laerm;9315;52.624;13.544;2023-05-07T12:42:47;67.56;42.83;77.07;;
18377;Laerm;9315;52.624;13.544;2023-05-07T12:45:19;69.91;47.95;83.86;;
18377;Laerm;9315;52.624;13.544;2023-05-07T12:47:48;69.26;43.52;84.63;;
18377;Laerm;9315;52.624;13.544;2023-05-07T12:50:16;67.07;42.71;82.68;;
18377;Laerm;9315;52.624;13.544;2023-05-07T12:52:47;67.83;46.49;77.17;;
18377;Laerm;9315;52.624;13.544;2023-05-07T12:55:16;69.40;44.63;85.36;;
18377;Laerm;9315;52.624;13.544;2023-05-07T12:57:49;67.01;43.88;76.77;;
18377;Laerm;9315;52.624;13.544;2023-05-07T13:00:36;69.43;44.19;85.63;;
18377;Laerm;9315;52.624;13.544;2023-05-07T13:03:04;68.52;43.60;84.32;;
18377;Laerm;9315;52.624;13.544;2023-05-07T13:05:35;66.88;45.47;77.95;;
18377;Laerm;9315;52.624;13.544;2023-05-07T13:08:02;67.36;42.11;78.73;;
18377;Laerm;9315;52.624;13.544;2023-05-07T13:10:29;64.92;42.01;76.13;;
18377;Laerm;9315;52.624;13.544;2023-05-07T13:12:56;65.88;43.18;75.68;;
18377;Laerm;9315;52.624;13.544;2023-05-07T13:15:24;67.28;46.31;84.05;;
18377;Laerm;9315;52.624;13.544;2023-05-07T13:17:52;68.18;43.88;79.56;;
18377;Laerm;9315;52.624;13.544;2023-05-07T13:20:22;67.77;46.74;76.35;;
18377;Laerm;9315;52.624;13.544;2023-05-07T13:22:50;70.61;47.56;86.57;;
18377;Laerm;9315;52.624;13.544;2023-05-07T13:25:17;66.93;41.98;76.50;;
18377;Laerm;9315;52.624;13.544;2023-05-07T13:27:53;67.39;40.95;77.42;;
18377;Laerm;9315;52.624;13.544;2023-05-07T13:30:36;67.71;46.29;79.62;;
18377;Laerm;9315;52.624;13.544;2023-05-07T13:33:03;67.01;44.09;75.79;;
18377;Laerm;9315;52.624;13.544;2023-05-07T13:35:35;66.36;44.18;74.91;;
18377;Laerm;9315;52.624;13.544;2023-05-07T13:38:03;69.39;43.87;82.45;;
18377;Laerm;9315;52.624;13.544;2023-05-07T13:40:30;66.44;42.78;76.77;;
18377;Laerm;9315;52.624;13.544;2023-05-07T13:42:58;67.44;43.90;76.37;;
18377;Laerm;9315;52.624;13.544;2023-05-07T13:45:28;83.39;44.05;109.33;;
18377;Laerm;9315;52.624;13.544;2023-05-07T13:47:57;67.89;42.28;76.64;;
18377;Laerm;9315;52.624;13.544;2023-05-07T13:50:24;65.24;41.04;79.33;;
18377;Laerm;9315;52.624;13.544;2023-05-07T13:52:53;69.38;43.83;81.18;;
18377;Laerm;9315;52.624;13.544;2023-05-07T13:55:23;67.60;45.23;75.57;;
18377;Laerm;9315;52.624;13.544;2023-05-07T13:58:04;67.60;40.31;79.03;;
18377;Laerm;9315;52.624;13.544;2023-05-07T14:00:33;67.83;42.69;76.75;;
18377;Laerm;9315;52.624;13.544;2023-05-07T14:03:01;67.06;43.76;78.72;;